sensor_id;sensor_type;location;lat;lon;timestamp;P1;durP1;ratioP1;P2;durP2;ratioP2
21492;SDS011;10908;50.690;4.400;2023-08-20T00:02:09;11.13;;;2.22;;
21492;SDS011;10908;50.690;4.400;2023-08-20T00:04:36;10.25;;;2.35;;
21492;SDS011;10908;50.690;4.400;2023-08-20T00:07:02;9.73;;;2.22;;
21492;SDS011;10908;50.690;4.400;2023-08-20T00:09:28;11.32;;;2.58;;
21492;SDS011;10908;50.690;4.400;2023-08-20T00:11:55;15.00;;;2.10;;
21492;SDS011;10908;50.690;4.400;2023-08-20T00:14:21;13.15;;;1.83;;
21492;SDS011;10908;50.690;4.400;2023-08-20T00:19:59;15.15;;;2.30;;
21492;SDS011;10908;50.690;4.400;2023-08-20T00:22:25;10.02;;;2.00;;
21492;SDS011;10908;50.690;4.400;2023-08-20T00:24:52;10.20;;;2.08;;
21492;SDS011;10908;50.690;4.400;2023-08-20T00:27:19;15.80;;;2.65;;
21492;SDS011;10908;50.690;4.400;2023-08-20T00:29:46;11.68;;;2.10;;
21492;SDS011;10908;50.690;4.400;2023-08-20T00:32:12;9.93;;;2.00;;
21492;SDS011;10908;50.690;4.400;2023-08-20T00:34:39;11.25;;;2.35;;
21492;SDS011;10908;50.690;4.400;2023-08-20T00:37:05;10.38;;;1.77;;
21492;SDS011;10908;50.690;4.400;2023-08-20T00:39:31;12.57;;;2.20;;
21492;SDS011;10908;50.690;4.400;2023-08-20T00:41:57;9.88;;;2.30;;
21492;SDS011;10908;50.690;4.400;2023-08-20T00:44:23;11.73;;;2.00;;
21492;SDS011;10908;50.690;4.400;2023-08-20T00:46:49;11.02;;;2.13;;
21492;SDS011;10908;50.690;4.400;2023-08-20T00:49:16;8.98;;;2.05;;
21492;SDS011;10908;50.690;4.400;2023-08-20T00:51:42;10.40;;;2.30;;
21492;SDS011;10908;50.690;4.400;2023-08-20T00:54:09;10.88;;;2.20;;
21492;SDS011;10908;50.690;4.400;2023-08-20T00:56:35;7.18;;;1.90;;
21492;SDS011;10908;50.690;4.400;2023-08-20T00:59:03;13.20;;;2.13;;
21492;SDS011;10908;50.690;4.400;2023-08-20T01:01:30;10.52;;;1.83;;
21492;SDS011;10908;50.690;4.400;2023-08-20T01:03:56;11.50;;;2.33;;
21492;SDS011;10908;50.690;4.400;2023-08-20T01:09:46;12.10;;;2.08;;
21492;SDS011;10908;50.690;4.400;2023-08-20T01:12:22;10.27;;;1.70;;
21492;SDS011;10908;50.690;4.400;2023-08-20T01:14:49;9.50;;;2.47;;
21492;SDS011;10908;50.690;4.400;2023-08-20T01:17:15;10.80;;;2.47;;
21492;SDS011;10908;50.690;4.400;2023-08-20T01:19:40;7.82;;;2.15;;
21492;SDS011;10908;50.690;4.400;2023-08-20T01:22:15;13.60;;;2.10;;
21492;SDS011;10908;50.690;4.400;2023-08-20T01:25:06;9.98;;;1.92;;
21492;SDS011;10908;50.690;4.400;2023-08-20T01:27:43;9.07;;;2.30;;
21492;SDS011;10908;50.690;4.400;2023-08-20T01:30:33;10.40;;;2.58;;
21492;SDS011;10908;50.690;4.400;2023-08-20T01:33:00;9.65;;;2.10;;
21492;SDS011;10908;50.690;4.400;2023-08-20T01:35:27;11.50;;;2.10;;
21492;SDS011;10908;50.690;4.400;2023-08-20T01:37:53;8.60;;;2.35;;
21492;SDS011;10908;50.690;4.400;2023-08-20T01:40:19;11.75;;;1.90;;
21492;SDS011;10908;50.690;4.400;2023-08-20T01:42:45;10.80;;;2.10;;
21492;SDS011;10908;50.690;4.400;2023-08-20T01:45:11;11.27;;;3.08;;
21492;SDS011;10908;50.690;4.400;2023-08-20T01:47:36;10.73;;;2.30;;
21492;SDS011;10908;50.690;4.400;2023-08-20T01:50:02;10.52;;;2.50;;
21492;SDS011;10908;50.690;4.400;2023-08-20T01:52:28;7.35;;;2.13;;
21492;SDS011;10908;50.690;4.400;2023-08-20T01:54:54;9.55;;;2.20;;
21492;SDS011;10908;50.690;4.400;2023-08-20T01:57:20;9.35;;;2.20;;
21492;SDS011;10908;50.690;4.400;2023-08-20T01:59:47;8.85;;;2.33;;
21492;SDS011;10908;50.690;4.400;2023-08-20T02:02:13;11.02;;;2.00;;
21492;SDS011;10908;50.690;4.400;2023-08-20T02:04:38;9.88;;;2.53;;
21492;SDS011;10908;50.690;4.400;2023-08-20T02:07:04;8.90;;;2.28;;
21492;SDS011;10908;50.690;4.400;2023-08-20T02:09:30;7.55;;;2.15;;
21492;SDS011;10908;50.690;4.400;2023-08-20T02:11:55;10.45;;;2.28;;
21492;SDS011;10908;50.690;4.400;2023-08-20T02:14:21;7.13;;;2.00;;
21492;SDS011;10908;50.690;4.400;2023-08-20T02:16:47;12.63;;;2.22;;
21492;SDS011;10908;50.690;4.400;2023-08-20T02:19:13;9.73;;;1.92;;
21492;SDS011;10908;50.690;4.400;2023-08-20T02:21:39;10.02;;;2.25;;
21492;SDS011;10908;50.690;4.400;2023-08-20T02:24:05;16.25;;;2.67;;
21492;SDS011;10908;50.690;4.400;2023-08-20T02:26:31;7.13;;;2.08;;
21492;SDS011;10908;50.690;4.400;2023-08-20T02:28:57;10.77;;;2.38;;
21492;SDS011;10908;50.690;4.400;2023-08-20T02:31:23;9.45;;;2.03;;
21492;SDS011;10908;50.690;4.400;2023-08-20T02:33:48;9.60;;;2.20;;
21492;SDS011;10908;50.690;4.400;2023-08-20T02:36:14;12.13;;;2.63;;
21492;SDS011;10908;50.690;4.400;2023-08-20T02:38:40;11.45;;;2.40;;
21492;SDS011;10908;50.690;4.400;2023-08-20T02:41:06;13.85;;;2.55;;
21492;SDS011;10908;50.690;4.400;2023-08-20T02:43:31;10.20;;;2.78;;
21492;SDS011;10908;50.690;4.400;2023-08-20T02:45:57;12.32;;;3.03;;
21492;SDS011;10908;50.690;4.400;2023-08-20T02:48:23;10.90;;;2.50;;
21492;SDS011;10908;50.690;4.400;2023-08-20T02:50:52;10.55;;;2.75;;
21492;SDS011;10908;50.690;4.400;2023-08-20T02:53:18;11.73;;;2.90;;
21492;SDS011;10908;50.690;4.400;2023-08-20T02:55:44;11.55;;;2.47;;
21492;SDS011;10908;50.690;4.400;2023-08-20T02:58:10;11.48;;;2.40;;
21492;SDS011;10908;50.690;4.400;2023-08-20T03:00:35;8.68;;;2.38;;
21492;SDS011;10908;50.690;4.400;2023-08-20T03:03:01;10.82;;;2.42;;
21492;SDS011;10908;50.690;4.400;2023-08-20T03:05:31;8.25;;;2.38;;
21492;SDS011;10908;50.690;4.400;2023-08-20T03:07:57;6.75;;;2.13;;
21492;SDS011;10908;50.690;4.400;2023-08-20T03:10:22;9.48;;;2.20;;
21492;SDS011;10908;50.690;4.400;2023-08-20T03:12:48;9.30;;;2.10;;
21492;SDS011;10908;50.690;4.400;2023-08-20T03:15:14;9.70;;;2.40;;
21492;SDS011;10908;50.690;4.400;2023-08-20T03:17:39;13.57;;;2.75;;
21492;SDS011;10908;50.690;4.400;2023-08-20T03:20:05;7.13;;;2.08;;
21492;SDS011;10908;50.690;4.400;2023-08-20T03:22:32;9.18;;;2.30;;
21492;SDS011;10908;50.690;4.400;2023-08-20T03:24:57;13.02;;;2.58;;
21492;SDS011;10908;50.690;4.400;2023-08-20T03:27:23;9.98;;;2.30;;
21492;SDS011;10908;50.690;4.400;2023-08-20T03:29:48;8.45;;;2.10;;
21492;SDS011;10908;50.690;4.400;2023-08-20T03:32:15;10.52;;;2.17;;
21492;SDS011;10908;50.690;4.400;2023-08-20T03:34:40;8.93;;;2.20;;
21492;SDS011;10908;50.690;4.400;2023-08-20T03:37:06;8.25;;;2.28;;
21492;SDS011;10908;50.690;4.400;2023-08-20T03:39:32;10.15;;;2.40;;
21492;SDS011;10908;50.690;4.400;2023-08-20T03:41:57;9.20;;;2.00;;
21492;SDS011;10908;50.690;4.400;2023-08-20T03:44:23;9.23;;;2.50;;
21492;SDS011;10908;50.690;4.400;2023-08-20T03:46:49;10.70;;;2.03;;
21492;SDS011;10908;50.690;4.400;2023-08-20T03:49:15;9.00;;;2.45;;
21492;SDS011;10908;50.690;4.400;2023-08-20T03:51:40;7.50;;;2.10;;
21492;SDS011;10908;50.690;4.400;2023-08-20T03:54:07;8.77;;;2.05;;
21492;SDS011;10908;50.690;4.400;2023-08-20T03:56:34;10.05;;;2.40;;
21492;SDS011;10908;50.690;4.400;2023-08-20T03:58:59;10.75;;;2.20;;
21492;SDS011;10908;50.690;4.400;2023-08-20T04:01:25;11.70;;;2.63;;
21492;SDS011;10908;50.690;4.400;2023-08-20T04:03:51;7.55;;;1.95;;
21492;SDS011;10908;50.690;4.400;2023-08-20T04:06:16;7.70;;;1.92;;
21492;SDS011;10908;50.690;4.400;2023-08-20T04:08:42;12.05;;;2.55;;
21492;SDS011;10908;50.690;4.400;2023-08-20T04:11:08;9.07;;;2.25;;
21492;SDS011;10908;50.690;4.400;2023-08-20T04:13:34;6.20;;;1.80;;
21492;SDS011;10908;50.690;4.400;2023-08-20T04:15:59;7.15;;;2.13;;
21492;SDS011;10908;50.690;4.400;2023-08-20T04:18:25;11.27;;;2.33;;
21492;SDS011;10908;50.690;4.400;2023-08-20T04:20:51;12.10;;;2.40;;
21492;SDS011;10908;50.690;4.400;2023-08-20T04:23:21;10.68;;;1.98;;
21492;SDS011;10908;50.690;4.400;2023-08-20T04:25:46;9.38;;;2.08;;
21492;SDS011;10908;50.690;4.400;2023-08-20T04:28:12;6.95;;;1.90;;
21492;SDS011;10908;50.690;4.400;2023-08-20T04:30:38;8.73;;;2.13;;
21492;SDS011;10908;50.690;4.400;2023-08-20T04:33:03;7.47;;;2.30;;
21492;SDS011;10908;50.690;4.400;2023-08-20T04:35:29;11.35;;;2.40;;
21492;SDS011;10908;50.690;4.400;2023-08-20T04:37:55;9.05;;;2.00;;
21492;SDS011;10908;50.690;4.400;2023-08-20T04:40:21;9.25;;;2.00;;
21492;SDS011;10908;50.690;4.400;2023-08-20T04:42:47;7.93;;;1.80;;
21492;SDS011;10908;50.690;4.400;2023-08-20T04:45:13;13.13;;;2.92;;
21492;SDS011;10908;50.690;4.400;2023-08-20T04:47:39;9.07;;;2.53;;
21492;SDS011;10908;50.690;4.400;2023-08-20T04:50:04;11.40;;;2.78;;
21492;SDS011;10908;50.690;4.400;2023-08-20T04:52:33;8.60;;;2.47;;
21492;SDS011;10908;50.690;4.400;2023-08-20T04:54:59;7.97;;;2.30;;
21492;SDS011;10908;50.690;4.400;2023-08-20T04:57:26;6.63;;;2.10;;
21492;SDS011;10908;50.690;4.400;2023-08-20T04:59:51;13.68;;;2.40;;
21492;SDS011;10908;50.690;4.400;2023-08-20T05:02:17;8.95;;;2.10;;
21492;SDS011;10908;50.690;4.400;2023-08-20T05:04:43;7.15;;;1.75;;
21492;SDS011;10908;50.690;4.400;2023-08-20T05:07:08;8.68;;;2.20;;
21492;SDS011;10908;50.690;4.400;2023-08-20T05:09:34;8.98;;;2.42;;
21492;SDS011;10908;50.690;4.400;2023-08-20T05:11:59;9.18;;;2.50;;
21492;SDS011;10908;50.690;4.400;2023-08-20T05:14:25;12.90;;;2.47;;
21492;SDS011;10908;50.690;4.400;2023-08-20T05:16:51;9.38;;;2.40;;
21492;SDS011;10908;50.690;4.400;2023-08-20T05:19:17;10.60;;;2.67;;
21492;SDS011;10908;50.690;4.400;2023-08-20T05:21:42;10.77;;;2.47;;
21492;SDS011;10908;50.690;4.400;2023-08-20T05:24:08;7.35;;;2.25;;
21492;SDS011;10908;50.690;4.400;2023-08-20T05:26:34;7.78;;;2.38;;
21492;SDS011;10908;50.690;4.400;2023-08-20T05:29:00;8.75;;;2.10;;
21492;SDS011;10908;50.690;4.400;2023-08-20T05:31:25;8.73;;;2.38;;
21492;SDS011;10908;50.690;4.400;2023-08-20T05:33:51;7.93;;;2.13;;
21492;SDS011;10908;50.690;4.400;2023-08-20T05:36:16;14.40;;;2.78;;
21492;SDS011;10908;50.690;4.400;2023-08-20T05:38:42;9.73;;;2.92;;
21492;SDS011;10908;50.690;4.400;2023-08-20T05:41:08;9.73;;;2.67;;
21492;SDS011;10908;50.690;4.400;2023-08-20T05:43:34;12.13;;;2.95;;
21492;SDS011;10908;50.690;4.400;2023-08-20T05:46:01;7.43;;;2.47;;
21492;SDS011;10908;50.690;4.400;2023-08-20T05:48:30;9.38;;;3.00;;
21492;SDS011;10908;50.690;4.400;2023-08-20T05:50:56;8.57;;;2.75;;
21492;SDS011;10908;50.690;4.400;2023-08-20T05:53:22;10.20;;;2.42;;
21492;SDS011;10908;50.690;4.400;2023-08-20T05:55:48;11.40;;;2.63;;
21492;SDS011;10908;50.690;4.400;2023-08-20T05:58:14;8.88;;;2.42;;
21492;SDS011;10908;50.690;4.400;2023-08-20T06:00:39;11.23;;;3.70;;
21492;SDS011;10908;50.690;4.400;2023-08-20T06:03:05;12.35;;;3.28;;
21492;SDS011;10908;50.690;4.400;2023-08-20T06:05:32;12.50;;;3.15;;
21492;SDS011;10908;50.690;4.400;2023-08-20T06:08:00;9.77;;;3.00;;
21492;SDS011;10908;50.690;4.400;2023-08-20T06:10:26;11.82;;;3.25;;
21492;SDS011;10908;50.690;4.400;2023-08-20T06:12:52;10.00;;;3.17;;
21492;SDS011;10908;50.690;4.400;2023-08-20T06:15:18;10.77;;;2.83;;
21492;SDS011;10908;50.690;4.400;2023-08-20T06:17:43;13.70;;;3.10;;
21492;SDS011;10908;50.690;4.400;2023-08-20T06:20:09;10.43;;;2.78;;
21492;SDS011;10908;50.690;4.400;2023-08-20T06:22:36;10.63;;;3.05;;
21492;SDS011;10908;50.690;4.400;2023-08-20T06:25:03;14.75;;;2.67;;
21492;SDS011;10908;50.690;4.400;2023-08-20T06:27:29;11.05;;;2.63;;
21492;SDS011;10908;50.690;4.400;2023-08-20T06:29:55;9.75;;;2.50;;
21492;SDS011;10908;50.690;4.400;2023-08-20T06:32:21;10.75;;;2.97;;
21492;SDS011;10908;50.690;4.400;2023-08-20T06:34:48;12.13;;;3.03;;
21492;SDS011;10908;50.690;4.400;2023-08-20T06:37:13;11.20;;;2.83;;
21492;SDS011;10908;50.690;4.400;2023-08-20T06:39:39;11.57;;;3.25;;
21492;SDS011;10908;50.690;4.400;2023-08-20T06:42:04;8.00;;;2.95;;
21492;SDS011;10908;50.690;4.400;2023-08-20T06:44:30;9.80;;;2.90;;
21492;SDS011;10908;50.690;4.400;2023-08-20T06:46:56;12.38;;;2.83;;
21492;SDS011;10908;50.690;4.400;2023-08-20T06:49:21;12.38;;;2.83;;
21492;SDS011;10908;50.690;4.400;2023-08-20T06:51:47;11.27;;;2.75;;
21492;SDS011;10908;50.690;4.400;2023-08-20T06:54:14;11.30;;;2.85;;
21492;SDS011;10908;50.690;4.400;2023-08-20T06:56:40;11.10;;;2.53;;
21492;SDS011;10908;50.690;4.400;2023-08-20T06:59:06;10.57;;;2.80;;
21492;SDS011;10908;50.690;4.400;2023-08-20T07:01:32;11.63;;;2.50;;
21492;SDS011;10908;50.690;4.400;2023-08-20T07:03:58;8.38;;;1.90;;
21492;SDS011;10908;50.690;4.400;2023-08-20T07:06:24;11.68;;;2.00;;
21492;SDS011;10908;50.690;4.400;2023-08-20T07:08:50;7.25;;;1.80;;
21492;SDS011;10908;50.690;4.400;2023-08-20T07:11:15;8.88;;;1.80;;
21492;SDS011;10908;50.690;4.400;2023-08-20T07:13:41;8.63;;;1.45;;
21492;SDS011;10908;50.690;4.400;2023-08-20T07:16:07;10.50;;;1.15;;
21492;SDS011;10908;50.690;4.400;2023-08-20T07:18:32;6.50;;;1.13;;
21492;SDS011;10908;50.690;4.400;2023-08-20T07:20:58;5.75;;;1.00;;
21492;SDS011;10908;50.690;4.400;2023-08-20T07:23:24;4.15;;;0.80;;
21492;SDS011;10908;50.690;4.400;2023-08-20T07:25:49;8.65;;;1.23;;
21492;SDS011;10908;50.690;4.400;2023-08-20T07:28:17;5.25;;;1.00;;
21492;SDS011;10908;50.690;4.400;2023-08-20T07:31:06;5.45;;;0.77;;
21492;SDS011;10908;50.690;4.400;2023-08-20T07:33:31;8.15;;;1.00;;
21492;SDS011;10908;50.690;4.400;2023-08-20T07:35:57;4.13;;;0.90;;
21492;SDS011;10908;50.690;4.400;2023-08-20T07:38:22;6.20;;;0.68;;
21492;SDS011;10908;50.690;4.400;2023-08-20T07:40:48;6.15;;;0.90;;
21492;SDS011;10908;50.690;4.400;2023-08-20T07:43:14;4.78;;;1.02;;
21492;SDS011;10908;50.690;4.400;2023-08-20T07:45:39;5.90;;;1.20;;
21492;SDS011;10908;50.690;4.400;2023-08-20T07:48:05;4.43;;;1.10;;
21492;SDS011;10908;50.690;4.400;2023-08-20T07:50:31;5.28;;;1.10;;
21492;SDS011;10908;50.690;4.400;2023-08-20T07:52:57;4.07;;;0.93;;
21492;SDS011;10908;50.690;4.400;2023-08-20T07:55:22;5.38;;;0.82;;
21492;SDS011;10908;50.690;4.400;2023-08-20T07:57:48;5.55;;;0.65;;
21492;SDS011;10908;50.690;4.400;2023-08-20T08:00:14;5.28;;;0.82;;
21492;SDS011;10908;50.690;4.400;2023-08-20T08:02:40;4.63;;;0.90;;
21492;SDS011;10908;50.690;4.400;2023-08-20T08:05:06;4.00;;;0.70;;
21492;SDS011;10908;50.690;4.400;2023-08-20T08:07:32;6.68;;;0.98;;
21492;SDS011;10908;50.690;4.400;2023-08-20T08:09:58;5.85;;;0.80;;
21492;SDS011;10908;50.690;4.400;2023-08-20T08:12:23;5.65;;;1.08;;
21492;SDS011;10908;50.690;4.400;2023-08-20T08:14:49;4.20;;;0.80;;
21492;SDS011;10908;50.690;4.400;2023-08-20T08:17:15;5.85;;;1.05;;
21492;SDS011;10908;50.690;4.400;2023-08-20T08:19:40;8.55;;;1.30;;
21492;SDS011;10908;50.690;4.400;2023-08-20T08:22:06;6.03;;;0.85;;
21492;SDS011;10908;50.690;4.400;2023-08-20T08:24:31;5.15;;;1.10;;
21492;SDS011;10908;50.690;4.400;2023-08-20T08:26:57;5.43;;;0.90;;
21492;SDS011;10908;50.690;4.400;2023-08-20T08:29:23;6.03;;;0.88;;
21492;SDS011;10908;50.690;4.400;2023-08-20T08:31:48;5.97;;;1.10;;
21492;SDS011;10908;50.690;4.400;2023-08-20T08:34:14;11.65;;;2.13;;
21492;SDS011;10908;50.690;4.400;2023-08-20T08:36:40;6.10;;;1.33;;
21492;SDS011;10908;50.690;4.400;2023-08-20T08:39:05;5.53;;;1.48;;
21492;SDS011;10908;50.690;4.400;2023-08-20T08:41:32;7.03;;;1.20;;
21492;SDS011;10908;50.690;4.400;2023-08-20T08:44:02;4.35;;;1.15;;
21492;SDS011;10908;50.690;4.400;2023-08-20T08:46:28;6.47;;;1.42;;
21492;SDS011;10908;50.690;4.400;2023-08-20T08:48:54;7.45;;;1.50;;
21492;SDS011;10908;50.690;4.400;2023-08-20T08:51:20;5.32;;;1.50;;
21492;SDS011;10908;50.690;4.400;2023-08-20T08:53:46;7.82;;;1.52;;
21492;SDS011;10908;50.690;4.400;2023-08-20T08:56:11;6.13;;;1.48;;
21492;SDS011;10908;50.690;4.400;2023-08-20T08:58:37;7.28;;;1.55;;
21492;SDS011;10908;50.690;4.400;2023-08-20T09:01:03;4.10;;;1.20;;
21492;SDS011;10908;50.690;4.400;2023-08-20T09:03:28;6.88;;;1.42;;
21492;SDS011;10908;50.690;4.400;2023-08-20T09:05:55;5.00;;;1.15;;
21492;SDS011;10908;50.690;4.400;2023-08-20T09:08:28;10.25;;;1.30;;
21492;SDS011;10908;50.690;4.400;2023-08-20T09:10:57;6.45;;;1.27;;
21492;SDS011;10908;50.690;4.400;2023-08-20T09:13:24;6.03;;;1.58;;
21492;SDS011;10908;50.690;4.400;2023-08-20T09:15:52;5.47;;;1.30;;
21492;SDS011;10908;50.690;4.400;2023-08-20T09:18:18;7.22;;;1.20;;
21492;SDS011;10908;50.690;4.400;2023-08-20T09:20:43;5.00;;;1.23;;
21492;SDS011;10908;50.690;4.400;2023-08-20T09:23:12;5.65;;;1.83;;
21492;SDS011;10908;50.690;4.400;2023-08-20T09:25:38;5.90;;;1.60;;
21492;SDS011;10908;50.690;4.400;2023-08-20T09:28:05;4.13;;;1.60;;
21492;SDS011;10908;50.690;4.400;2023-08-20T09:30:30;7.07;;;1.90;;
21492;SDS011;10908;50.690;4.400;2023-08-20T09:33:03;8.23;;;1.80;;
21492;SDS011;10908;50.690;4.400;2023-08-20T09:35:30;8.43;;;1.50;;
21492;SDS011;10908;50.690;4.400;2023-08-20T09:37:59;5.75;;;1.40;;
21492;SDS011;10908;50.690;4.400;2023-08-20T09:40:26;4.93;;;1.38;;
21492;SDS011;10908;50.690;4.400;2023-08-20T09:42:53;6.25;;;1.30;;
21492;SDS011;10908;50.690;4.400;2023-08-20T09:45:20;4.78;;;1.20;;
21492;SDS011;10908;50.690;4.400;2023-08-20T09:47:46;8.43;;;1.67;;
21492;SDS011;10908;50.690;4.400;2023-08-20T09:50:13;6.28;;;1.25;;
21492;SDS011;10908;50.690;4.400;2023-08-20T09:52:45;5.93;;;1.30;;
21492;SDS011;10908;50.690;4.400;2023-08-20T09:55:21;7.20;;;1.20;;
21492;SDS011;10908;50.690;4.400;2023-08-20T09:57:47;4.57;;;1.00;;
21492;SDS011;10908;50.690;4.400;2023-08-20T10:00:14;8.35;;;1.45;;
21492;SDS011;10908;50.690;4.400;2023-08-20T10:02:40;5.90;;;1.33;;
21492;SDS011;10908;50.690;4.400;2023-08-20T10:05:07;5.78;;;1.50;;
21492;SDS011;10908;50.690;4.400;2023-08-20T10:07:34;5.80;;;1.20;;
21492;SDS011;10908;50.690;4.400;2023-08-20T10:10:01;5.95;;;1.52;;
21492;SDS011;10908;50.690;4.400;2023-08-20T10:12:29;5.47;;;1.30;;
21492;SDS011;10908;50.690;4.400;2023-08-20T10:14:56;8.82;;;1.52;;
21492;SDS011;10908;50.690;4.400;2023-08-20T10:17:23;6.18;;;1.40;;
21492;SDS011;10908;50.690;4.400;2023-08-20T10:19:52;7.57;;;1.67;;
21492;SDS011;10908;50.690;4.400;2023-08-20T10:22:18;8.23;;;1.15;;
21492;SDS011;10908;50.690;4.400;2023-08-20T10:24:48;6.18;;;1.13;;
21492;SDS011;10908;50.690;4.400;2023-08-20T10:27:27;7.68;;;1.30;;
21492;SDS011;10908;50.690;4.400;2023-08-20T10:29:58;7.15;;;1.67;;
21492;SDS011;10908;50.690;4.400;2023-08-20T10:35:08;6.25;;;1.30;;
21492;SDS011;10908;50.690;4.400;2023-08-20T10:37:34;5.30;;;1.35;;
21492;SDS011;10908;50.690;4.400;2023-08-20T10:40:02;8.15;;;1.50;;
21492;SDS011;10908;50.690;4.400;2023-08-20T10:42:29;6.38;;;1.40;;
21492;SDS011;10908;50.690;4.400;2023-08-20T10:50:09;5.97;;;1.58;;
21492;SDS011;10908;50.690;4.400;2023-08-20T10:52:40;6.93;;;1.60;;
21492;SDS011;10908;50.690;4.400;2023-08-20T10:55:07;4.03;;;1.27;;
21492;SDS011;10908;50.690;4.400;2023-08-20T10:57:34;6.78;;;1.40;;
21492;SDS011;10908;50.690;4.400;2023-08-20T11:00:02;4.80;;;1.27;;
21492;SDS011;10908;50.690;4.400;2023-08-20T11:02:39;6.78;;;1.40;;
21492;SDS011;10908;50.690;4.400;2023-08-20T11:05:19;6.40;;;1.60;;
21492;SDS011;10908;50.690;4.400;2023-08-20T11:07:49;6.10;;;1.40;;
21492;SDS011;10908;50.690;4.400;2023-08-20T11:10:15;8.02;;;1.65;;
21492;SDS011;10908;50.690;4.400;2023-08-20T11:12:42;5.72;;;1.33;;
21492;SDS011;10908;50.690;4.400;2023-08-20T11:15:10;5.35;;;1.48;;
21492;SDS011;10908;50.690;4.400;2023-08-20T11:17:46;6.25;;;1.55;;
21492;SDS011;10908;50.690;4.400;2023-08-20T11:20:13;7.35;;;1.10;;
21492;SDS011;10908;50.690;4.400;2023-08-20T11:22:40;6.15;;;1.30;;
21492;SDS011;10908;50.690;4.400;2023-08-20T11:25:15;9.45;;;1.15;;
21492;SDS011;10908;50.690;4.400;2023-08-20T11:27:43;6.28;;;1.45;;
21492;SDS011;10908;50.690;4.400;2023-08-20T11:30:09;7.68;;;1.42;;
21492;SDS011;10908;50.690;4.400;2023-08-20T11:32:38;4.35;;;1.08;;
21492;SDS011;10908;50.690;4.400;2023-08-20T11:35:05;7.38;;;1.45;;
21492;SDS011;10908;50.690;4.400;2023-08-20T11:37:32;5.28;;;1.30;;
21492;SDS011;10908;50.690;4.400;2023-08-20T11:39:58;5.95;;;1.48;;
21492;SDS011;10908;50.690;4.400;2023-08-20T11:42:24;9.18;;;1.40;;
21492;SDS011;10908;50.690;4.400;2023-08-20T11:44:51;6.10;;;1.20;;
21492;SDS011;10908;50.690;4.400;2023-08-20T11:47:20;6.47;;;1.40;;
21492;SDS011;10908;50.690;4.400;2023-08-20T11:49:46;6.32;;;1.30;;
21492;SDS011;10908;50.690;4.400;2023-08-20T11:52:12;3.78;;;1.00;;
21492;SDS011;10908;50.690;4.400;2023-08-20T11:54:38;5.65;;;1.42;;
21492;SDS011;10908;50.690;4.400;2023-08-20T11:57:04;6.45;;;1.35;;
21492;SDS011;10908;50.690;4.400;2023-08-20T11:59:31;5.43;;;1.30;;
21492;SDS011;10908;50.690;4.400;2023-08-20T12:01:58;6.40;;;1.30;;
21492;SDS011;10908;50.690;4.400;2023-08-20T12:04:26;4.32;;;1.00;;
21492;SDS011;10908;50.690;4.400;2023-08-20T12:09:34;7.85;;;1.17;;
21492;SDS011;10908;50.690;4.400;2023-08-20T12:12:00;4.82;;;1.10;;
21492;SDS011;10908;50.690;4.400;2023-08-20T12:14:27;5.53;;;0.93;;
21492;SDS011;10908;50.690;4.400;2023-08-20T12:16:53;4.35;;;1.08;;
21492;SDS011;10908;50.690;4.400;2023-08-20T12:19:20;7.07;;;1.10;;
21492;SDS011;10908;50.690;4.400;2023-08-20T12:21:46;3.45;;;0.90;;
21492;SDS011;10908;50.690;4.400;2023-08-20T12:24:14;7.20;;;1.13;;
21492;SDS011;10908;50.690;4.400;2023-08-20T12:26:40;3.03;;;0.88;;
21492;SDS011;10908;50.690;4.400;2023-08-20T12:29:06;5.22;;;1.30;;
21492;SDS011;10908;50.690;4.400;2023-08-20T12:31:32;5.25;;;1.00;;
21492;SDS011;10908;50.690;4.400;2023-08-20T12:33:59;5.10;;;1.08;;
21492;SDS011;10908;50.690;4.400;2023-08-20T12:36:26;4.53;;;0.93;;
21492;SDS011;10908;50.690;4.400;2023-08-20T12:38:52;6.05;;;0.95;;
21492;SDS011;10908;50.690;4.400;2023-08-20T12:41:18;5.30;;;1.50;;
21492;SDS011;10908;50.690;4.400;2023-08-20T12:43:44;7.22;;;1.13;;
21492;SDS011;10908;50.690;4.400;2023-08-20T12:46:10;7.38;;;1.30;;
21492;SDS011;10908;50.690;4.400;2023-08-20T12:48:37;4.45;;;0.90;;
21492;SDS011;10908;50.690;4.400;2023-08-20T12:51:03;4.82;;;1.15;;
21492;SDS011;10908;50.690;4.400;2023-08-20T12:53:29;6.20;;;1.30;;
21492;SDS011;10908;50.690;4.400;2023-08-20T12:55:55;5.10;;;1.05;;
21492;SDS011;10908;50.690;4.400;2023-08-20T12:58:20;6.88;;;1.10;;
21492;SDS011;10908;50.690;4.400;2023-08-20T13:00:46;7.40;;;1.20;;
21492;SDS011;10908;50.690;4.400;2023-08-20T13:03:12;4.22;;;1.00;;
21492;SDS011;10908;50.690;4.400;2023-08-20T13:05:38;5.03;;;1.13;;
21492;SDS011;10908;50.690;4.400;2023-08-20T13:08:04;3.75;;;0.90;;
21492;SDS011;10908;50.690;4.400;2023-08-20T13:10:30;5.80;;;1.23;;
21492;SDS011;10908;50.690;4.400;2023-08-20T13:13:01;8.43;;;1.20;;
21492;SDS011;10908;50.690;4.400;2023-08-20T13:15:27;4.40;;;1.00;;
21492;SDS011;10908;50.690;4.400;2023-08-20T13:17:53;8.73;;;1.13;;
21492;SDS011;10908;50.690;4.400;2023-08-20T13:20:20;6.65;;;1.33;;
21492;SDS011;10908;50.690;4.400;2023-08-20T13:22:49;4.90;;;1.20;;
21492;SDS011;10908;50.690;4.400;2023-08-20T13:25:15;7.40;;;1.38;;
21492;SDS011;10908;50.690;4.400;2023-08-20T13:27:41;5.93;;;1.15;;
21492;SDS011;10908;50.690;4.400;2023-08-20T13:30:08;4.50;;;1.10;;
21492;SDS011;10908;50.690;4.400;2023-08-20T13:32:35;5.93;;;1.30;;
21492;SDS011;10908;50.690;4.400;2023-08-20T13:35:01;5.05;;;0.98;;
21492;SDS011;10908;50.690;4.400;2023-08-20T13:37:28;4.85;;;1.00;;
21492;SDS011;10908;50.690;4.400;2023-08-20T13:39:56;6.03;;;1.17;;
21492;SDS011;10908;50.690;4.400;2023-08-20T13:42:22;6.30;;;1.10;;
21492;SDS011;10908;50.690;4.400;2023-08-20T13:44:47;4.00;;;1.05;;
21492;SDS011;10908;50.690;4.400;2023-08-20T13:47:13;5.85;;;1.08;;
21492;SDS011;10908;50.690;4.400;2023-08-20T13:49:39;5.07;;;1.00;;
21492;SDS011;10908;50.690;4.400;2023-08-20T13:52:04;4.30;;;1.08;;
21492;SDS011;10908;50.690;4.400;2023-08-20T13:54:30;5.57;;;1.40;;
21492;SDS011;10908;50.690;4.400;2023-08-20T13:56:56;6.53;;;1.05;;
21492;SDS011;10908;50.690;4.400;2023-08-20T13:59:22;4.13;;;1.00;;
21492;SDS011;10908;50.690;4.400;2023-08-20T14:01:48;6.55;;;1.08;;
21492;SDS011;10908;50.690;4.400;2023-08-20T14:04:14;7.63;;;1.30;;
21492;SDS011;10908;50.690;4.400;2023-08-20T14:06:39;5.07;;;0.95;;
21492;SDS011;10908;50.690;4.400;2023-08-20T14:09:05;4.07;;;0.98;;
21492;SDS011;10908;50.690;4.400;2023-08-20T14:11:31;6.35;;;1.15;;
21492;SDS011;10908;50.690;4.400;2023-08-20T14:13:57;4.20;;;1.15;;
21492;SDS011;10908;50.690;4.400;2023-08-20T14:16:23;3.90;;;0.90;;
21492;SDS011;10908;50.690;4.400;2023-08-20T14:18:48;6.30;;;1.02;;
21492;SDS011;10908;50.690;4.400;2023-08-20T14:21:14;7.78;;;1.27;;
21492;SDS011;10908;50.690;4.400;2023-08-20T14:23:40;4.80;;;1.23;;
21492;SDS011;10908;50.690;4.400;2023-08-20T14:26:06;4.80;;;1.17;;
21492;SDS011;10908;50.690;4.400;2023-08-20T14:28:32;6.82;;;1.20;;
21492;SDS011;10908;50.690;4.400;2023-08-20T14:31:01;11.55;;;1.20;;
21492;SDS011;10908;50.690;4.400;2023-08-20T14:33:33;6.57;;;1.35;;
21492;SDS011;10908;50.690;4.400;2023-08-20T14:35:59;6.55;;;1.27;;
21492;SDS011;10908;50.690;4.400;2023-08-20T14:38:24;9.38;;;1.27;;
21492;SDS011;10908;50.690;4.400;2023-08-20T14:40:50;6.53;;;1.20;;
21492;SDS011;10908;50.690;4.400;2023-08-20T14:43:16;5.80;;;1.00;;
21492;SDS011;10908;50.690;4.400;2023-08-20T14:45:42;5.03;;;1.15;;
21492;SDS011;10908;50.690;4.400;2023-08-20T14:48:07;5.93;;;1.20;;
21492;SDS011;10908;50.690;4.400;2023-08-20T14:50:33;6.45;;;1.17;;
21492;SDS011;10908;50.690;4.400;2023-08-20T14:52:59;5.15;;;1.13;;
21492;SDS011;10908;50.690;4.400;2023-08-20T14:55:25;6.65;;;1.30;;
21492;SDS011;10908;50.690;4.400;2023-08-20T14:57:51;3.40;;;0.98;;